Terminal Aerodrome Forecast
Issued by NWS

Home | Current Version | Previous Version | Graphics & Text | Print | Product List | Glossary On
Versions: 1 2 3 4 5 6 7 8 9 10 11 12 13 14 15 16 17 18 19 20 21 22 23 24 25 26 27 28 29 30 31 32 33 34 35
000
FTUS43 KLOT 300251 AAB
TAFORD
TAF AMD
KORD 300251Z 3003/0106 04012KT 6SM -SHRA OVC015
     FM300700 03012KT P6SM VCSH OVC008
     FM301600 05014G20KT P6SM VCSH OVC012
     FM010000 04009KT P6SM OVC007=

USA.gov is the U.S. government's official web portal to all federal, state and local government web resources and services.